Charlotte, North Carolina
Current Conditions -  °F | °C
As of 4:52 AM on Saturday 22 Nov 2014 (Local Time) from KCLT Reporting Station
Clear Clear  
Wind Chill: 30°   Ceiling: Unl
Heat Index: 30°   Visibility: 10mi
Dew Point: 12°   Wind: 0mph
Humidity: 47%   Direction: NA
Pressure: 30.53"   Gusts: NA
Location:  35.22°N, 80.84°W
Report Text: KCLT 220952Z 00000KT 10SM CLR M01/M11 A3053 RMK AO2 SLP342 T10111111
Loading
Personal Weather Stations






























Interactive Weather Map New forecast layout! Learn more

10-Day Weather Forecast

Advertisements
Track Severe Weather on mobile